Time;durP1;ratioP1;P1;durP2;ratioP2;P2;SDS_P1;SDS_P2;PMS_P1;PMS_P2;Temp;Humidity;BMP_temperature;BMP_pressure;BME280_temperature;BME280_humidity;BME280_pressure;Samples;Min_cycle;Max_cycle;Signal;HPM_P1;HPM_P2
2023/02/14 00:01:09;;;;;;;29.87;20.60;;;3.10;99.90;;;;;;4914802;29;20233;-81
2023/02/14 00:03:36;;;;;;;30.37;20.93;;;3.00;99.90;;;;;;4914813;29;20513;-83
2023/02/14 00:06:09;;;;;;;33.53;22.73;;;3.00;99.90;;;;;;4915573;29;20321;-82
2023/02/14 00:08:36;;;;;;;32.03;20.83;;;2.90;99.90;;;;;;4913678;29;20218;-82
2023/02/14 00:11:04;;;;;;;31.67;22.30;;;2.90;99.90;;;;;;4926571;29;20210;-81
2023/02/14 00:13:31;;;;;;;31.13;21.33;;;2.90;99.90;;;;;;4930276;29;20233;-82
2023/02/14 00:15:57;;;;;;;30.63;21.17;;;2.90;99.90;;;;;;4920115;29;20237;-82
2023/02/14 00:19:02;;;;;;;30.43;21.20;;;2.80;99.90;;;;;;4914527;29;20206;-82
2023/02/14 00:21:13;;;;;;;26.87;20.13;;;2.80;99.90;;;;;;4914475;29;20313;-79
2023/02/14 00:23:40;;;;;;;28.87;19.80;;;2.80;99.90;;;;;;4914300;29;20290;-82
2023/02/14 00:26:14;;;;;;;31.37;21.90;;;2.80;99.90;;;;;;4914959;29;20207;-82
2023/02/14 00:28:40;;;;;;;32.47;21.53;;;2.80;99.90;;;;;;4913663;29;20217;-81
2023/02/14 00:31:07;;;;;;;33.50;21.00;;;2.80;99.90;;;;;;4914642;29;20203;-82
2023/02/14 00:33:34;;;;;;;33.17;22.70;;;2.80;99.90;;;;;;4913605;29;20643;-80
2023/02/14 00:36:03;;;;;;;32.33;20.90;;;2.80;99.90;;;;;;4926106;29;20296;-82
2023/02/14 00:38:31;;;;;;;28.40;19.63;;;2.70;99.90;;;;;;4932760;29;20226;-80
2023/02/14 00:40:58;;;;;;;28.10;19.57;;;2.70;99.90;;;;;;4913277;29;20345;-81
2023/02/14 00:43:25;;;;;;;32.97;21.40;;;2.70;99.90;;;;;;4909901;29;20225;-78
2023/02/14 00:45:52;;;;;;;34.27;22.37;;;2.70;99.90;;;;;;4910103;29;20218;-77
2023/02/14 00:48:19;;;;;;;32.30;22.00;;;2.70;99.90;;;;;;4910621;29;20215;-77
2023/02/14 00:50:46;;;;;;;32.23;21.67;;;2.60;99.90;;;;;;4909015;29;20323;-78
2023/02/14 00:53:13;;;;;;;28.07;19.70;;;2.60;99.90;;;;;;4910373;29;20213;-78
2023/02/14 00:55:41;;;;;;;25.07;19.00;;;2.60;99.90;;;;;;4909565;29;20199;-77
2023/02/14 00:58:08;;;;;;;31.60;22.20;;;2.60;99.90;;;;;;4910455;29;20207;-77
2023/02/14 01:00:35;;;;;;;31.27;20.43;;;2.60;99.90;;;;;;4909886;29;20226;-77
2023/02/14 01:03:02;;;;;;;29.97;20.37;;;2.60;99.90;;;;;;4908292;29;20195;-77
2023/02/14 01:05:28;;;;;;;31.73;21.00;;;2.50;99.90;;;;;;4909174;29;20211;-76
2023/02/14 01:07:55;;;;;;;28.93;20.37;;;2.50;99.90;;;;;;4908719;29;20591;-76
2023/02/14 01:10:22;;;;;;;28.53;18.90;;;2.50;99.90;;;;;;4908835;29;20796;-77
2023/02/14 01:12:51;;;;;;;26.97;19.77;;;2.50;99.90;;;;;;4908568;29;20206;-76
2023/02/14 01:15:18;;;;;;;28.47;20.50;;;2.50;99.90;;;;;;4909128;29;20570;-76
2023/02/14 01:17:45;;;;;;;28.43;18.97;;;2.40;99.90;;;;;;4908822;29;20297;-79
2023/02/14 01:20:13;;;;;;;27.70;19.03;;;2.40;99.90;;;;;;4909629;29;20337;-78
2023/02/14 01:22:40;;;;;;;26.70;18.73;;;2.40;99.90;;;;;;4911997;29;20297;-78
2023/02/14 01:25:07;;;;;;;31.93;21.10;;;2.40;99.90;;;;;;4928484;29;20316;-78
2023/02/14 01:27:34;;;;;;;30.30;19.90;;;2.40;99.90;;;;;;4928012;29;20210;-77
2023/02/14 01:30:03;;;;;;;28.83;18.40;;;2.40;99.90;;;;;;4911889;29;20305;-82
2023/02/14 01:32:31;;;;;;;31.53;19.60;;;2.40;99.90;;;;;;4911075;29;20231;-81
2023/02/14 01:34:58;;;;;;;30.40;20.43;;;2.40;99.90;;;;;;4912090;29;20213;-80
2023/02/14 01:37:25;;;;;;;26.00;18.40;;;2.30;99.90;;;;;;4911941;29;20225;-82
2023/02/14 01:39:52;;;;;;;29.57;19.77;;;2.30;99.90;;;;;;4911535;29;20227;-81
2023/02/14 01:42:19;;;;;;;26.77;17.33;;;2.30;99.90;;;;;;4912184;29;20533;-82
2023/02/14 01:44:57;;;;;;;30.00;20.30;;;2.30;99.90;;;;;;4912257;29;20238;-81
2023/02/14 01:47:28;;;;;;;30.53;20.03;;;2.30;99.90;;;;;;4911857;29;20206;-81
2023/02/14 01:50:00;;;;;;;31.57;20.40;;;2.30;99.90;;;;;;4911866;29;20211;-82
2023/02/14 01:52:31;;;;;;;32.40;21.20;;;2.30;99.90;;;;;;4913981;29;21190;-83
2023/02/14 01:55:02;;;;;;;28.50;20.20;;;2.30;99.90;;;;;;4918925;29;20297;-80
2023/02/14 01:57:33;;;;;;;28.83;19.23;;;2.30;99.90;;;;;;4911673;29;20263;-82
2023/02/14 02:02:44;;;;;;;32.70;21.73;;;2.30;99.90;;;;;;4910469;29;20202;-83
2023/02/14 02:05:11;;;;;;;34.17;21.50;;;2.20;99.90;;;;;;4912089;29;20211;-81
2023/02/14 02:07:38;;;;;;;32.40;20.40;;;2.20;99.90;;;;;;4909323;29;20207;-81
2023/02/14 02:10:08;;;;;;;32.97;21.50;;;2.20;99.90;;;;;;4910328;29;20856;-80
2023/02/14 02:12:36;;;;;;;28.17;19.93;;;2.20;99.90;;;;;;4909671;29;20262;-81
2023/02/14 02:15:06;;;;;;;30.90;19.57;;;2.20;99.90;;;;;;4907569;29;20269;-81
2023/02/14 02:17:42;;;;;;;30.97;19.67;;;2.20;99.90;;;;;;4907942;29;20701;-77
2023/02/14 02:20:41;;;;;;;27.47;18.23;;;2.20;99.90;;;;;;4907476;29;20229;-78
2023/02/14 02:23:44;;;;;;;30.97;20.67;;;2.20;99.90;;;;;;4908303;29;20198;-77
2023/02/14 02:26:43;;;;;;;26.00;18.40;;;2.20;99.90;;;;;;4907754;29;20201;-77
2023/02/14 02:29:47;;;;;;;27.87;18.97;;;2.20;99.90;;;;;;4907244;29;20214;-79
2023/02/14 02:32:51;;;;;;;30.37;19.47;;;2.10;99.90;;;;;;4907622;29;20230;-77
2023/02/14 02:35:28;;;;;;;27.67;17.80;;;2.10;99.90;;;;;;4908041;29;20549;-78
2023/02/14 02:38:07;;;;;;;30.43;18.63;;;2.10;99.90;;;;;;4925410;29;20287;-77
2023/02/14 02:40:44;;;;;;;28.03;17.97;;;2.00;99.90;;;;;;4926588;29;20214;-77
2023/02/14 02:43:26;;;;;;;30.33;19.60;;;2.00;99.90;;;;;;4926335;29;20202;-77
2023/02/14 02:48:55;;;;;;;30.10;18.53;;;2.00;99.90;;;;;;4907317;29;20189;-79
2023/02/14 02:54:23;;;;;;;32.07;19.03;;;2.00;99.90;;;;;;4908485;29;20960;-80
2023/02/14 02:56:54;;;;;;;29.07;17.73;;;2.00;99.90;;;;;;4906780;29;20311;-79
2023/02/14 02:59:24;;;;;;;29.87;19.20;;;2.00;99.90;;;;;;4921826;29;20213;-79
2023/02/14 03:01:56;;;;;;;31.23;18.73;;;2.00;99.90;;;;;;4926131;29;20909;-79
2023/02/14 03:09:57;;;;;;;26.20;16.73;;;1.90;99.90;;;;;;4927354;29;20193;-81
2023/02/14 03:12:55;;;;;;;23.27;15.80;;;1.80;99.90;;;;;;4916630;29;20214;-82
2023/02/14 03:15:36;;;;;;;20.47;15.03;;;1.90;99.90;;;;;;4892412;29;20210;-78
2023/02/14 03:20:55;;;;;;;21.27;14.00;;;1.90;99.90;;;;;;4908569;29;20657;-82
2023/02/14 03:23:27;;;;;;;20.67;14.23;;;1.80;99.90;;;;;;4907562;29;20639;-81
2023/02/14 03:26:04;;;;;;;17.27;13.57;;;1.80;99.90;;;;;;4908166;29;20209;-82
2023/02/14 03:28:37;;;;;;;19.23;13.23;;;1.80;99.90;;;;;;4908617;29;20210;-81
2023/02/14 03:31:12;;;;;;;17.20;13.30;;;1.80;99.90;;;;;;4908539;29;20200;-81
2023/02/14 03:33:46;;;;;;;17.57;12.27;;;1.80;99.90;;;;;;4908494;29;20309;-82
2023/02/14 03:36:17;;;;;;;16.57;12.30;;;1.80;99.90;;;;;;4908363;29;20310;-79
2023/02/14 03:38:51;;;;;;;17.93;13.20;;;1.80;99.90;;;;;;4923605;29;20214;-80
2023/02/14 03:41:21;;;;;;;17.17;12.47;;;1.80;99.90;;;;;;4927608;29;20312;-82
2023/02/14 03:43:51;;;;;;;19.70;13.83;;;1.70;99.90;;;;;;4926995;29;20233;-81
2023/02/14 03:46:22;;;;;;;17.37;12.60;;;1.70;99.90;;;;;;4909735;29;20594;-80
2023/02/14 03:48:53;;;;;;;18.17;13.10;;;1.70;99.90;;;;;;4906330;29;20356;-79
2023/02/14 03:58:11;;;;;;;17.77;13.00;;;1.60;99.90;;;;;;4917560;29;20234;-77
2023/02/14 04:00:41;;;;;;;17.23;12.87;;;1.60;99.90;;;;;;4921177;29;20324;-78
2023/02/14 04:03:11;;;;;;;20.17;13.63;;;1.60;99.90;;;;;;4915706;29;20206;-82
2023/02/14 04:05:42;;;;;;;17.63;13.00;;;1.60;99.90;;;;;;4912821;29;20206;-82
2023/02/14 04:08:10;;;;;;;19.73;13.13;;;1.50;99.90;;;;;;4915236;29;20586;-82
2023/02/14 04:10:40;;;;;;;20.93;14.80;;;1.50;99.90;;;;;;4924204;29;20301;-80
2023/02/14 04:13:09;;;;;;;18.53;12.83;;;1.50;99.90;;;;;;4913078;29;20249;-82
2023/02/14 04:15:36;;;;;;;17.83;13.23;;;1.50;99.90;;;;;;4911391;29;20207;-83
2023/02/14 04:20:47;;;;;;;18.10;13.10;;;1.50;99.90;;;;;;4910758;29;20277;-82
2023/02/14 04:23:14;;;;;;;17.07;12.33;;;1.40;99.90;;;;;;4911483;29;20580;-83
2023/02/14 04:25:41;;;;;;;20.27;14.10;;;1.40;99.90;;;;;;4924048;29;20892;-79
2023/02/14 04:28:10;;;;;;;20.23;13.90;;;1.40;99.90;;;;;;4930936;29;20217;-81
2023/02/14 04:30:37;;;;;;;20.13;14.10;;;1.40;99.90;;;;;;4928769;29;20727;-82
2023/02/14 04:33:04;;;;;;;19.27;13.10;;;1.40;99.90;;;;;;4912403;29;20242;-83
2023/02/14 04:35:31;;;;;;;19.90;13.90;;;1.40;99.90;;;;;;4911641;29;20206;-83
2023/02/14 04:37:58;;;;;;;20.27;14.23;;;1.40;99.90;;;;;;4931532;29;20213;-83
2023/02/14 04:40:25;;;;;;;18.63;13.40;;;1.40;99.90;;;;;;4926945;29;20214;-83
2023/02/14 04:42:52;;;;;;;23.77;16.13;;;1.40;99.90;;;;;;4912250;29;20210;-83
2023/02/14 04:45:20;;;;;;;21.07;14.80;;;1.40;99.90;;;;;;4912181;29;20210;-83
2023/02/14 04:47:47;;;;;;;23.17;14.90;;;1.40;99.90;;;;;;4909600;29;20198;-83
2023/02/14 04:50:14;;;;;;;22.30;15.40;;;1.40;99.90;;;;;;4910713;29;20293;-83
2023/02/14 04:52:41;;;;;;;23.67;14.67;;;1.40;99.90;;;;;;4910528;29;20298;-83
2023/02/14 04:55:10;;;;;;;22.40;15.63;;;1.40;99.90;;;;;;4911208;29;20246;-83
2023/02/14 04:57:37;;;;;;;20.40;13.47;;;1.40;99.90;;;;;;4911678;29;20235;-81
2023/02/14 05:00:04;;;;;;;21.33;13.57;;;1.50;99.90;;;;;;4910260;29;20273;-83
2023/02/14 05:02:32;;;;;;;21.53;13.97;;;1.50;99.90;;;;;;4911709;29;20230;-83
2023/02/14 05:04:59;;;;;;;20.13;14.23;;;1.40;99.90;;;;;;4911472;29;20210;-79
2023/02/14 05:07:26;;;;;;;21.17;14.40;;;1.40;99.90;;;;;;4909208;29;20220;-84
2023/02/14 05:09:53;;;;;;;19.27;13.23;;;1.40;99.90;;;;;;4910642;29;20210;-77
2023/02/14 05:12:20;;;;;;;17.50;12.80;;;1.40;99.90;;;;;;4927220;29;20297;-82
2023/02/14 05:14:47;;;;;;;17.70;13.13;;;1.40;99.90;;;;;;4927234;29;20261;-80
2023/02/14 05:17:14;;;;;;;18.63;13.40;;;1.40;99.90;;;;;;4928613;29;20202;-81
2023/02/14 05:19:43;;;;;;;17.87;12.70;;;1.40;99.90;;;;;;4914543;29;20219;-82
2023/02/14 05:22:10;;;;;;;18.03;13.03;;;1.40;99.90;;;;;;4906463;29;20226;-79
2023/02/14 05:24:36;;;;;;;16.63;12.43;;;1.40;99.90;;;;;;4907260;29;20202;-78
2023/02/14 05:27:03;;;;;;;17.80;12.93;;;1.30;99.90;;;;;;4907644;29;20221;-79
2023/02/14 05:29:30;;;;;;;18.63;12.87;;;1.30;99.90;;;;;;4906694;29;20337;-79
2023/02/14 05:31:57;;;;;;;21.33;13.57;;;1.30;99.90;;;;;;4906485;29;20564;-78
2023/02/14 05:34:25;;;;;;;22.03;14.47;;;1.30;99.90;;;;;;4907862;29;20229;-78
2023/02/14 05:36:53;;;;;;;19.43;13.60;;;1.30;99.90;;;;;;4907858;29;20322;-83
2023/02/14 05:39:20;;;;;;;19.53;14.37;;;1.30;99.90;;;;;;4911864;29;20243;-82
2023/02/14 05:41:47;;;;;;;20.43;14.00;;;1.30;99.90;;;;;;4911827;29;20238;-80
2023/02/14 05:44:14;;;;;;;20.57;14.53;;;1.30;99.90;;;;;;4911895;29;20346;-81
2023/02/14 05:46:41;;;;;;;22.33;15.13;;;1.30;99.90;;;;;;4921703;29;20852;-81
2023/02/14 05:49:09;;;;;;;20.80;14.90;;;1.30;99.90;;;;;;4931250;29;20903;-83
2023/02/14 05:51:36;;;;;;;19.47;13.70;;;1.30;99.90;;;;;;4930293;29;20213;-83
2023/02/14 05:54:04;;;;;;;21.50;14.57;;;1.30;99.90;;;;;;4927757;29;20214;-83
2023/02/14 05:56:31;;;;;;;21.80;14.57;;;1.20;99.90;;;;;;4911700;29;20210;-83
2023/02/14 05:58:58;;;;;;;20.47;14.47;;;1.30;99.90;;;;;;4910744;29;20339;-83
2023/02/14 06:01:25;;;;;;;18.93;13.43;;;1.30;99.90;;;;;;4911410;29;20245;-83
2023/02/14 06:03:52;;;;;;;21.33;14.63;;;1.20;99.90;;;;;;4911896;29;20213;-80
2023/02/14 06:06:19;;;;;;;22.17;14.40;;;1.20;99.90;;;;;;4911436;29;20205;-82
2023/02/14 06:08:46;;;;;;;21.63;15.03;;;1.20;99.90;;;;;;4911155;29;20696;-82
2023/02/14 06:11:14;;;;;;;20.10;14.23;;;1.20;99.90;;;;;;4911279;29;20798;-82
2023/02/14 06:13:41;;;;;;;23.00;14.90;;;1.20;99.90;;;;;;4911112;29;20663;-83
2023/02/14 06:16:08;;;;;;;23.83;16.50;;;1.20;99.90;;;;;;4912172;29;20211;-84
2023/02/14 06:18:35;;;;;;;22.33;15.90;;;1.20;99.90;;;;;;4911424;29;20325;-85
2023/02/14 06:21:02;;;;;;;24.27;18.27;;;1.20;99.90;;;;;;4911919;29;20195;-84
2023/02/14 06:23:29;;;;;;;27.87;17.87;;;1.20;99.90;;;;;;4911944;29;20210;-83
2023/02/14 06:25:56;;;;;;;27.63;18.03;;;1.20;99.90;;;;;;4911767;29;20237;-84
2023/02/14 06:28:24;;;;;;;25.77;17.03;;;1.20;99.90;;;;;;4910876;29;20238;-81
2023/02/14 06:30:51;;;;;;;24.00;16.67;;;1.30;99.90;;;;;;4911846;29;20221;-83
2023/02/14 06:33:18;;;;;;;27.67;17.77;;;1.30;99.90;;;;;;4907745;29;20302;-82
2023/02/14 06:35:45;;;;;;;26.37;17.03;;;1.30;99.90;;;;;;4913046;29;20258;-85
2023/02/14 06:38:12;;;;;;;21.73;15.97;;;1.30;99.90;;;;;;4929170;29;20202;-83
2023/02/14 06:40:39;;;;;;;24.43;17.63;;;1.30;99.90;;;;;;4928905;29;20772;-83
2023/02/14 06:43:06;;;;;;;27.87;19.33;;;1.30;99.90;;;;;;4912225;29;20325;-81
2023/02/14 06:45:35;;;;;;;29.73;19.47;;;1.30;99.90;;;;;;4909908;29;20213;-83
2023/02/14 06:48:02;;;;;;;30.10;19.93;;;1.30;99.90;;;;;;4915418;29;20213;-83
2023/02/14 06:50:29;;;;;;;26.43;18.60;;;1.30;99.90;;;;;;4928421;29;20288;-84
2023/02/14 06:52:56;;;;;;;27.70;18.67;;;1.30;99.90;;;;;;4909846;29;20944;-78
2023/02/14 06:55:23;;;;;;;29.07;17.80;;;1.30;99.90;;;;;;4906875;29;20206;-81
2023/02/14 06:57:50;;;;;;;31.03;19.07;;;1.30;99.90;;;;;;4912857;29;20329;-83
2023/02/14 07:00:18;;;;;;;29.23;18.97;;;1.30;99.90;;;;;;4911725;29;20230;-83
2023/02/14 07:02:46;;;;;;;30.57;19.27;;;1.30;99.90;;;;;;4912730;29;20286;-84
2023/02/14 07:05:15;;;;;;;30.43;20.57;;;1.30;99.90;;;;;;4913003;29;20302;-84
2023/02/14 07:07:41;;;;;;;29.87;19.30;;;1.40;99.90;;;;;;4910965;29;20246;-83
2023/02/14 07:10:09;;;;;;;29.20;20.07;;;1.40;99.90;;;;;;4922160;29;20210;-83
2023/02/14 07:12:38;;;;;;;29.00;18.77;;;1.40;99.90;;;;;;4930875;29;20206;-83
2023/02/14 07:15:05;;;;;;;31.40;21.70;;;1.40;99.90;;;;;;4928359;29;20206;-79
2023/02/14 07:17:32;;;;;;;33.10;21.87;;;1.40;99.90;;;;;;4909588;29;20206;-82
2023/02/14 07:20:01;;;;;;;35.40;23.53;;;1.50;99.90;;;;;;4908781;29;20298;-81
2023/02/14 07:22:28;;;;;;;33.00;23.37;;;1.50;99.90;;;;;;4909359;29;20226;-83
2023/02/14 07:24:54;;;;;;;34.37;22.40;;;1.60;99.90;;;;;;4910746;29;20213;-82
2023/02/14 07:27:21;;;;;;;36.20;22.53;;;1.60;99.90;;;;;;4909672;29;20226;-79
2023/02/14 07:29:48;;;;;;;36.57;23.53;;;1.70;99.90;;;;;;4908982;29;20199;-82
2023/02/14 07:32:15;;;;;;;35.13;22.37;;;1.70;99.90;;;;;;4910795;29;20518;-81
2023/02/14 07:34:42;;;;;;;32.20;21.47;;;1.70;99.90;;;;;;4910036;29;20317;-83
2023/02/14 07:37:11;;;;;;;32.97;21.77;;;1.70;99.90;;;;;;4924702;29;20217;-83
2023/02/14 07:39:38;;;;;;;36.20;23.07;;;1.80;99.90;;;;;;4929444;29;20297;-83
2023/02/14 07:42:05;;;;;;;42.60;26.20;;;1.80;99.90;;;;;;4928182;29;20233;-81
2023/02/14 07:44:32;;;;;;;35.07;23.67;;;1.80;99.90;;;;;;4929820;29;20236;-83
2023/02/14 07:46:59;;;;;;;37.50;23.73;;;1.90;99.90;;;;;;4927928;29;20211;-82
2023/02/14 07:49:26;;;;;;;43.43;25.13;;;1.90;99.90;;;;;;4928578;29;20209;-82
2023/02/14 07:51:53;;;;;;;49.57;27.60;;;1.90;99.90;;;;;;4913082;29;20203;-81
2023/02/14 07:54:22;;;;;;;42.10;27.33;;;2.10;99.90;;;;;;4911054;29;20209;-79
2023/02/14 07:56:49;;;;;;;41.70;26.23;;;2.10;99.90;;;;;;4909697;29;20599;-81
2023/02/14 07:59:16;;;;;;;42.23;26.03;;;2.20;99.90;;;;;;4931228;29;20333;-82
2023/02/14 08:01:43;;;;;;;43.93;27.40;;;2.30;99.90;;;;;;4930442;29;20271;-82
2023/02/14 08:04:12;;;;;;;40.90;26.73;;;2.30;99.90;;;;;;4930939;29;20560;-82
2023/02/14 08:06:39;;;;;;;41.47;27.00;;;2.40;99.90;;;;;;4913439;29;20253;-83
2023/02/14 08:09:06;;;;;;;37.23;25.03;;;2.40;99.90;;;;;;4912445;29;20512;-81
2023/02/14 08:14:20;;;;;;;44.77;27.30;;;2.50;99.90;;;;;;4912019;29;20202;-82
2023/02/14 08:17:14;;;;;;;49.93;28.07;;;2.50;99.90;;;;;;4853938;29;20293;-83
2023/02/14 08:19:41;;;;;;;53.43;31.33;;;2.60;99.90;;;;;;4922795;29;20221;-81
2023/02/14 08:22:09;;;;;;;46.80;28.13;;;2.70;99.90;;;;;;4927290;29;20381;-83
2023/02/14 08:24:35;;;;;;;42.40;29.23;;;2.80;99.90;;;;;;4925705;29;20704;-78
2023/02/14 08:27:04;;;;;;;46.07;28.33;;;2.90;99.90;;;;;;4927824;29;20264;-78
2023/02/14 08:29:31;;;;;;;45.07;27.43;;;3.00;99.90;;;;;;4927186;29;20220;-79
2023/02/14 08:31:59;;;;;;;51.60;30.27;;;3.00;99.90;;;;;;4923377;29;20296;-79
2023/02/14 08:34:26;;;;;;;46.93;30.67;;;3.10;99.90;;;;;;4923080;29;20234;-79
2023/02/14 08:36:54;;;;;;;50.83;31.17;;;3.20;99.90;;;;;;4917325;29;20202;-77
2023/02/14 08:39:21;;;;;;;45.33;29.33;;;3.30;99.90;;;;;;4928131;29;20214;-83
2023/02/14 08:41:48;;;;;;;48.87;30.20;;;3.30;99.90;;;;;;4930549;29;20300;-78
2023/02/14 08:44:16;;;;;;;40.73;27.70;;;3.40;99.90;;;;;;4925082;29;20252;-78
2023/02/14 08:46:43;;;;;;;42.90;27.67;;;3.40;99.90;;;;;;4926603;29;20789;-78
2023/02/14 08:49:11;;;;;;;47.03;31.00;;;3.50;99.90;;;;;;4925782;29;20322;-79
2023/02/14 08:51:37;;;;;;;48.83;30.90;;;3.50;99.90;;;;;;4927034;29;20850;-77
2023/02/14 08:54:04;;;;;;;45.03;29.37;;;3.60;99.90;;;;;;4928946;29;20252;-81
2023/02/14 08:56:31;;;;;;;52.03;31.93;;;3.60;99.90;;;;;;4924404;29;20880;-78
2023/02/14 08:58:58;;;;;;;52.87;33.80;;;3.70;99.90;;;;;;4927249;29;20670;-80
2023/02/14 09:01:27;;;;;;;56.83;33.20;;;3.90;99.90;;;;;;4928834;29;20325;-84
2023/02/14 09:03:55;;;;;;;56.30;32.63;;;4.00;99.90;;;;;;4930240;29;20232;-78
2023/02/14 09:06:22;;;;;;;59.03;34.80;;;4.10;99.90;;;;;;4930573;29;20209;-84
2023/02/14 09:08:50;;;;;;;54.17;34.30;;;4.20;99.90;;;;;;4928342;29;20216;-80
2023/02/14 09:11:20;;;;;;;57.27;35.37;;;4.20;99.90;;;;;;4928357;29;20348;-81
2023/02/14 09:13:48;;;;;;;50.40;33.60;;;4.30;99.90;;;;;;4931456;29;20209;-81
2023/02/14 09:16:17;;;;;;;55.60;34.37;;;4.40;99.90;;;;;;4929126;29;20284;-81
2023/02/14 09:18:47;;;;;;;56.50;35.17;;;4.40;99.90;;;;;;4929824;29;20213;-86
2023/02/14 09:21:15;;;;;;;57.53;34.60;;;4.50;99.90;;;;;;4914596;29;20211;-79
2023/02/14 09:23:43;;;;;;;52.57;33.43;;;4.60;99.90;;;;;;4911392;29;20222;-84
2023/02/14 09:26:12;;;;;;;56.87;34.97;;;4.70;99.90;;;;;;4931958;29;20221;-85
2023/02/14 09:28:39;;;;;;;60.40;38.07;;;4.80;99.90;;;;;;4928751;29;20241;-79
2023/02/14 09:31:10;;;;;;;52.90;34.97;;;4.80;99.90;;;;;;4926177;29;20294;-85
2023/02/14 09:33:38;;;;;;;58.10;36.93;;;4.90;99.90;;;;;;4912872;29;20229;-86
2023/02/14 09:36:19;;;;;;;59.57;36.77;;;5.00;99.90;;;;;;4926431;29;20699;-83
2023/02/14 09:38:46;;;;;;;62.27;37.17;;;5.00;99.90;;;;;;4915832;29;20294;-82
2023/02/14 09:41:45;;;;;;;59.93;36.50;;;5.10;99.90;;;;;;4911624;29;20302;-83
2023/02/14 09:44:23;;;;;;;59.30;37.80;;;5.20;99.90;;;;;;4909902;29;20237;-82
2023/02/14 09:46:54;;;;;;;54.07;35.37;;;5.20;99.90;;;;;;4914993;29;20917;-79
2023/02/14 09:49:30;;;;;;;67.87;38.57;;;5.30;99.90;;;;;;4928530;29;20312;-85
2023/02/14 09:52:01;;;;;;;58.93;37.97;;;5.40;99.90;;;;;;4929964;29;20227;-86
2023/02/14 09:54:29;;;;;;;63.87;39.00;;;5.40;99.90;;;;;;4928035;29;20209;-79
2023/02/14 09:57:00;;;;;;;71.33;41.73;;;5.50;99.90;;;;;;4910695;29;20218;-78
2023/02/14 09:59:33;;;;;;;61.93;38.83;;;5.60;99.90;;;;;;4908608;29;20209;-80
2023/02/14 10:02:19;;;;;;;64.73;39.70;;;5.70;99.90;;;;;;4906628;29;20621;-79
2023/02/14 10:04:56;;;;;;;56.00;35.97;;;5.90;99.90;;;;;;4906607;29;20214;-77
2023/02/14 10:07:32;;;;;;;69.17;39.43;;;5.90;99.90;;;;;;4906862;29;20198;-79
2023/02/14 10:10:10;;;;;;;56.67;36.70;;;6.10;99.90;;;;;;4907469;29;20315;-77
2023/02/14 10:12:43;;;;;;;61.13;39.33;;;6.20;99.90;;;;;;4906455;29;20214;-79
2023/02/14 10:15:16;;;;;;;60.50;38.37;;;6.30;99.90;;;;;;4907665;29;20289;-77
2023/02/14 10:17:48;;;;;;;62.50;40.27;;;6.40;99.90;;;;;;4906930;29;20228;-78
2023/02/14 10:20:22;;;;;;;61.97;39.57;;;6.50;99.90;;;;;;4907520;29;20187;-78
2023/02/14 10:23:00;;;;;;;62.33;39.80;;;6.70;99.90;;;;;;4907794;29;20653;-82
2023/02/14 10:25:31;;;;;;;68.83;42.63;;;6.80;99.90;;;;;;4908088;29;20221;-77
2023/02/14 10:28:01;;;;;;;69.27;44.10;;;6.90;99.90;;;;;;4908909;29;20195;-76
2023/02/14 10:30:37;;;;;;;75.07;44.93;;;7.00;99.90;;;;;;4906893;29;20667;-77
2023/02/14 10:33:11;;;;;;;67.47;43.17;;;7.10;99.90;;;;;;4916991;29;20234;-79
2023/02/14 10:35:44;;;;;;;71.10;45.07;;;7.20;99.90;;;;;;4926400;29;20204;-76
2023/02/14 10:38:25;;;;;;;66.27;44.37;;;7.40;99.90;;;;;;4922235;29;20487;-78
2023/02/14 10:41:05;;;;;;;68.80;43.00;;;7.50;99.90;;;;;;4927020;29;20260;-78
2023/02/14 10:43:40;;;;;;;69.70;44.93;;;7.60;99.90;;;;;;4926950;29;20331;-78
2023/02/14 10:46:13;;;;;;;75.47;44.10;;;7.70;99.90;;;;;;4919836;29;20213;-79
2023/02/14 10:48:51;;;;;;;75.87;44.50;;;7.90;99.90;;;;;;4929607;29;20763;-82
2023/02/14 10:51:24;;;;;;;77.07;46.83;;;8.00;99.90;;;;;;4918608;29;20305;-87
2023/02/14 10:54:03;;;;;;;75.60;45.03;;;8.10;99.90;;;;;;4909408;29;20234;-86
2023/02/14 10:56:34;;;;;;;70.77;46.10;;;8.30;99.90;;;;;;4911394;29;20195;-83
2023/02/14 10:59:14;;;;;;;67.20;44.90;;;8.40;99.90;;;;;;4912414;29;20199;-85
2023/02/14 11:01:41;;;;;;;68.97;45.13;;;8.50;99.90;;;;;;4913601;29;20749;-84
2023/02/14 11:04:12;;;;;;;76.77;47.57;;;8.60;99.90;;;;;;4930406;29;20321;-82
2023/02/14 11:06:38;;;;;;;74.10;46.90;;;8.70;99.90;;;;;;4927158;29;20206;-81
2023/02/14 11:09:07;;;;;;;73.87;47.07;;;8.80;99.90;;;;;;4916750;29;20687;-82
2023/02/14 11:11:40;;;;;;;71.90;43.93;;;8.90;99.90;;;;;;4909267;29;20210;-79
2023/02/14 11:14:21;;;;;;;67.27;44.43;;;9.00;99.90;;;;;;4909127;29;20198;-83
2023/02/14 11:16:50;;;;;;;68.10;45.60;;;9.10;99.90;;;;;;4910616;29;20207;-79
2023/02/14 11:19:22;;;;;;;67.47;42.73;;;9.20;99.90;;;;;;4911363;29;20210;-88
2023/02/14 11:21:50;;;;;;;54.70;38.77;;;9.30;99.90;;;;;;4916786;29;20612;-81
2023/02/14 11:24:25;;;;;;;56.13;38.97;;;9.40;99.90;;;;;;4924662;29;20225;-86
2023/02/14 11:26:55;;;;;;;51.40;36.90;;;9.60;99.90;;;;;;4934504;29;20209;-78
2023/02/14 11:29:27;;;;;;;53.10;36.83;;;9.70;99.90;;;;;;4933787;29;20784;-81
2023/02/14 11:31:55;;;;;;;47.77;34.40;;;9.90;99.90;;;;;;4934001;29;20850;-81
2023/02/14 11:34:31;;;;;;;46.67;33.47;;;10.00;99.90;;;;;;4933621;29;20694;-78
2023/02/14 11:36:58;;;;;;;50.90;35.43;;;10.10;99.90;;;;;;4913880;29;20678;-77
2023/02/14 11:39:31;;;;;;;46.77;34.43;;;10.20;99.90;;;;;;4914756;29;20285;-83
2023/02/14 11:42:00;;;;;;;46.87;32.37;;;10.30;99.90;;;;;;4919905;29;20222;-82
2023/02/14 11:44:29;;;;;;;42.03;32.27;;;10.40;99.90;;;;;;4918818;29;20250;-83
2023/02/14 11:46:57;;;;;;;44.53;31.00;;;10.50;99.90;;;;;;4918837;29;20268;-85
2023/02/14 11:49:30;;;;;;;45.43;31.70;;;10.60;99.90;;;;;;4918800;29;20250;-85
2023/02/14 11:51:58;;;;;;;40.63;30.43;;;10.70;99.90;;;;;;4919928;29;20773;-82
2023/02/14 11:54:32;;;;;;;42.03;28.83;;;10.80;99.90;;;;;;4918847;29;20209;-85
2023/02/14 11:57:04;;;;;;;44.60;30.33;;;10.90;99.90;;;;;;4918092;29;20202;-83
2023/02/14 11:59:36;;;;;;;43.07;30.93;;;11.00;99.90;;;;;;4919727;29;20597;-85
2023/02/14 12:02:14;;;;;;;42.13;30.33;;;11.10;99.90;;;;;;4919368;29;20568;-86
2023/02/14 12:04:45;;;;;;;40.80;30.63;;;11.10;99.90;;;;;;4917802;29;20309;-85
2023/02/14 12:07:19;;;;;;;40.17;29.30;;;11.20;99.90;;;;;;4927983;29;20208;-87
2023/02/14 12:09:48;;;;;;;39.57;29.53;;;11.30;99.90;;;;;;4956253;29;20236;-85
2023/02/14 12:12:22;;;;;;;39.00;28.90;;;11.30;99.90;;;;;;4949827;28;20215;-84
2023/02/14 12:14:49;;;;;;;39.03;28.63;;;11.40;99.90;;;;;;4952417;28;20209;-82
2023/02/14 12:17:28;;;;;;;37.60;28.67;;;11.50;99.90;;;;;;4955258;29;20241;-83
2023/02/14 12:20:03;;;;;;;40.27;28.77;;;11.50;99.90;;;;;;4957128;28;20908;-84
2023/02/14 12:22:35;;;;;;;38.27;28.23;;;11.50;99.90;;;;;;4950837;29;20749;-84
2023/02/14 12:25:12;;;;;;;42.97;30.20;;;11.70;99.90;;;;;;4943849;29;20215;-81
2023/02/14 12:27:47;;;;;;;39.20;29.93;;;11.70;99.90;;;;;;4924129;29;20206;-84
2023/02/14 12:30:17;;;;;;;38.73;27.47;;;11.70;99.90;;;;;;4919002;29;20237;-80
2023/02/14 12:32:48;;;;;;;40.00;29.90;;;11.70;99.90;;;;;;4911232;29;20623;-77
2023/02/14 12:35:17;;;;;;;36.30;27.73;;;11.80;99.90;;;;;;4912884;29;20907;-82
2023/02/14 12:38:01;;;;;;;35.80;26.67;;;11.80;99.90;;;;;;4915743;29;20242;-83
2023/02/14 12:40:40;;;;;;;36.93;25.73;;;11.80;99.90;;;;;;4913474;29;20297;-79
2023/02/14 12:43:35;;;;;;;37.40;26.63;;;11.90;99.90;;;;;;4913843;29;20222;-82
2023/02/14 12:46:20;;;;;;;35.30;27.10;;;11.90;99.90;;;;;;4914218;29;20225;-82
2023/02/14 12:49:05;;;;;;;38.30;28.10;;;12.00;99.90;;;;;;4924870;29;20333;-83
2023/02/14 12:51:39;;;;;;;37.97;27.87;;;12.00;99.90;;;;;;4932319;29;20202;-82
2023/02/14 12:54:28;;;;;;;38.53;26.53;;;11.90;99.90;;;;;;4932708;29;20214;-82
2023/02/14 12:57:05;;;;;;;32.33;25.17;;;12.00;99.90;;;;;;4933153;29;20897;-79
2023/02/14 12:59:39;;;;;;;38.93;27.30;;;12.10;99.90;;;;;;4932224;29;20296;-78
2023/02/14 13:02:46;;;;;;;36.10;26.50;;;12.10;99.90;;;;;;4932433;29;20205;-79
2023/02/14 13:05:22;;;;;;;35.87;27.20;;;12.20;99.90;;;;;;4932099;29;20221;-82
2023/02/14 13:08:12;;;;;;;34.03;25.43;;;12.20;99.90;;;;;;4909839;29;20221;-80
2023/02/14 13:10:55;;;;;;;38.17;26.80;;;12.20;99.90;;;;;;4911545;29;20286;-78
2023/02/14 13:13:36;;;;;;;35.97;25.50;;;12.20;99.90;;;;;;4908209;29;20214;-78
2023/02/14 13:16:13;;;;;;;37.77;28.90;;;12.20;99.90;;;;;;4920115;29;20280;-78
2023/02/14 13:18:49;;;;;;;36.23;27.00;;;12.30;99.90;;;;;;4927240;29;20314;-79
2023/02/14 13:21:19;;;;;;;34.37;27.17;;;12.30;99.90;;;;;;4926678;29;20202;-79
2023/02/14 13:23:49;;;;;;;41.53;28.80;;;12.40;99.90;;;;;;4907567;29;20229;-79